Time;durP1;ratioP1;P1;durP2;ratioP2;P2;SDS_P1;SDS_P2;PMS_P1;PMS_P2;Temp;Humidity;BMP_temperature;BMP_pressure;BME280_temperature;BME280_humidity;BME280_pressure;Samples;Min_cycle;Max_cycle;Signal;HPM_P1;HPM_P2
2023/03/24 00:01:53;;;;;;;20.55;7.75;;;8.10;100.00;;;;;;5003371;28;20080;-71
2023/03/24 00:04:20;;;;;;;19.52;7.30;;;8.10;100.00;;;;;;5004104;28;20049;-71
2023/03/24 00:06:51;;;;;;;22.92;6.80;;;8.20;100.00;;;;;;5027495;28;20824;-71
2023/03/24 00:09:18;;;;;;;23.65;6.70;;;8.20;100.00;;;;;;5016459;28;20780;-71
2023/03/24 00:11:45;;;;;;;18.45;6.85;;;8.10;100.00;;;;;;5022222;28;20060;-72
2023/03/24 00:14:12;;;;;;;19.58;6.97;;;8.10;100.00;;;;;;5019991;28;20773;-72
2023/03/24 00:16:44;;;;;;;20.45;7.38;;;8.10;100.00;;;;;;5004293;28;20053;-72
2023/03/24 00:19:13;;;;;;;18.35;7.13;;;8.10;100.00;;;;;;5020956;28;20049;-71
2023/03/24 00:21:41;;;;;;;16.63;6.43;;;8.10;100.00;;;;;;5016720;28;20056;-72
2023/03/24 00:24:08;;;;;;;18.55;7.13;;;8.10;100.00;;;;;;5016223;28;20517;-71
2023/03/24 00:26:36;;;;;;;24.45;6.85;;;8.20;100.00;;;;;;5007670;28;20578;-72
2023/03/24 00:29:06;;;;;;;16.60;7.15;;;8.10;100.00;;;;;;5017989;28;20049;-71
2023/03/24 00:31:33;;;;;;;16.45;5.93;;;8.10;100.00;;;;;;5018286;28;20057;-71
2023/03/24 00:34:01;;;;;;;17.50;6.45;;;8.10;100.00;;;;;;5022286;28;20130;-71
2023/03/24 00:36:28;;;;;;;17.23;6.18;;;8.10;100.00;;;;;;5019077;28;20049;-71
2023/03/24 00:38:56;;;;;;;17.35;6.45;;;8.10;100.00;;;;;;5020972;28;20752;-71
2023/03/24 00:41:25;;;;;;;15.20;6.75;;;8.10;100.00;;;;;;5018233;28;20660;-72
2023/03/24 00:43:55;;;;;;;18.10;6.43;;;8.10;100.00;;;;;;5005097;28;20045;-72
2023/03/24 00:46:29;;;;;;;14.90;6.20;;;8.20;100.00;;;;;;5019741;28;20053;-71
2023/03/24 00:49:05;;;;;;;24.83;7.13;;;8.20;100.00;;;;;;5016409;28;20048;-72
2023/03/24 00:51:36;;;;;;;18.08;6.43;;;8.20;100.00;;;;;;5015107;28;20077;-72
2023/03/24 00:54:04;;;;;;;17.90;6.68;;;8.20;100.00;;;;;;5019419;28;20471;-71
2023/03/24 00:56:34;;;;;;;17.58;6.15;;;8.30;100.00;;;;;;5020232;28;20489;-71
2023/03/24 00:59:01;;;;;;;19.25;6.72;;;8.30;100.00;;;;;;5021562;28;20046;-71
2023/03/24 01:01:33;;;;;;;16.08;6.18;;;8.30;100.00;;;;;;5005142;28;20111;-72
2023/03/24 01:04:01;;;;;;;18.23;6.40;;;8.30;100.00;;;;;;5021085;28;20041;-72
2023/03/24 01:06:29;;;;;;;14.98;6.22;;;8.40;100.00;;;;;;5019286;28;20073;-71
2023/03/24 01:08:55;;;;;;;17.02;5.72;;;8.40;100.00;;;;;;5019021;28;20045;-72
2023/03/24 01:11:25;;;;;;;26.77;7.35;;;8.40;100.00;;;;;;5024708;28;20049;-71
2023/03/24 01:13:53;;;;;;;17.88;6.28;;;8.40;100.00;;;;;;5025429;28;20445;-71
2023/03/24 01:16:24;;;;;;;19.73;6.30;;;8.40;100.00;;;;;;5022952;28;20053;-71
2023/03/24 01:18:51;;;;;;;18.38;6.65;;;8.50;100.00;;;;;;5022622;28;20171;-72
2023/03/24 01:21:18;;;;;;;19.23;6.80;;;8.50;100.00;;;;;;5023668;28;20054;-71
2023/03/24 01:23:46;;;;;;;13.73;6.00;;;8.50;100.00;;;;;;5023406;28;20048;-71
2023/03/24 01:26:13;;;;;;;16.52;6.10;;;8.50;100.00;;;;;;5020924;28;20068;-71
2023/03/24 01:28:42;;;;;;;23.90;6.10;;;8.50;100.00;;;;;;5020624;28;20057;-71
2023/03/24 01:31:10;;;;;;;18.92;5.55;;;8.50;100.00;;;;;;5018114;28;20061;-71
2023/03/24 01:33:38;;;;;;;15.25;6.55;;;8.50;100.00;;;;;;5023643;28;20088;-72
2023/03/24 01:36:05;;;;;;;18.35;5.65;;;8.50;100.00;;;;;;5024079;28;20082;-72
2023/03/24 01:38:33;;;;;;;14.25;5.80;;;8.60;100.00;;;;;;5002821;28;20049;-72
2023/03/24 01:41:00;;;;;;;16.55;6.10;;;8.60;100.00;;;;;;5021491;28;20064;-72
2023/03/24 01:43:30;;;;;;;15.77;6.43;;;8.60;100.00;;;;;;5022559;28;20056;-72
2023/03/24 01:46:04;;;;;;;15.85;6.35;;;8.60;100.00;;;;;;5021201;28;20046;-72
2023/03/24 01:48:43;;;;;;;18.75;6.35;;;8.60;100.00;;;;;;5024316;28;20132;-72
2023/03/24 01:51:34;;;;;;;16.17;6.18;;;8.60;100.00;;;;;;5020085;28;20053;-72
2023/03/24 01:54:27;;;;;;;20.25;6.40;;;8.60;100.00;;;;;;5021962;28;20060;-72
2023/03/24 01:57:05;;;;;;;14.45;6.07;;;8.60;100.00;;;;;;5022888;28;20108;-72
2023/03/24 01:59:36;;;;;;;15.32;6.03;;;8.70;100.00;;;;;;5004817;28;20119;-72
2023/03/24 02:02:05;;;;;;;15.35;5.50;;;8.70;100.00;;;;;;5017203;28;20553;-71
2023/03/24 02:04:37;;;;;;;20.60;5.90;;;8.70;100.00;;;;;;5018040;28;20053;-72
2023/03/24 02:07:32;;;;;;;15.40;6.68;;;8.70;100.00;;;;;;5006430;28;20049;-72
2023/03/24 02:10:12;;;;;;;16.27;6.35;;;8.70;100.00;;;;;;5011143;28;20091;-72
2023/03/24 02:12:41;;;;;;;18.63;6.55;;;8.70;100.00;;;;;;5021367;28;20049;-71
2023/03/24 02:15:09;;;;;;;15.88;6.20;;;8.70;100.00;;;;;;5004947;28;20073;-71
2023/03/24 02:17:57;;;;;;;16.95;6.43;;;8.70;100.00;;;;;;5019679;28;20086;-72
2023/03/24 02:20:34;;;;;;;21.85;6.75;;;8.70;100.00;;;;;;5018209;28;20049;-72
2023/03/24 02:23:01;;;;;;;20.15;6.68;;;8.70;100.00;;;;;;5021529;28;20064;-72
2023/03/24 02:26:02;;;;;;;21.80;6.90;;;8.70;100.00;;;;;;5025327;28;20045;-72
2023/03/24 02:28:47;;;;;;;22.80;6.55;;;8.70;100.00;;;;;;5014458;28;20064;-72
2023/03/24 02:31:33;;;;;;;20.33;6.93;;;8.70;100.00;;;;;;5005369;28;20057;-72
2023/03/24 02:34:12;;;;;;;22.25;7.45;;;8.70;100.00;;;;;;5019474;28;20136;-72
2023/03/24 02:36:50;;;;;;;19.30;7.22;;;8.70;100.00;;;;;;5016980;28;20050;-72
2023/03/24 02:39:50;;;;;;;19.45;6.85;;;8.70;100.00;;;;;;5022243;28;20050;-72
2023/03/24 02:42:31;;;;;;;19.80;6.20;;;8.70;100.00;;;;;;5022527;28;20146;-72
2023/03/24 02:45:36;;;;;;;18.88;7.57;;;8.70;100.00;;;;;;5022967;28;20060;-72
2023/03/24 02:48:12;;;;;;;23.33;8.18;;;8.70;100.00;;;;;;5001470;28;20077;-72
2023/03/24 02:50:49;;;;;;;22.88;8.70;;;8.70;100.00;;;;;;5023622;28;20351;-72
2023/03/24 02:53:23;;;;;;;14.30;7.00;;;8.70;100.00;;;;;;5023228;28;20049;-72
2023/03/24 02:56:06;;;;;;;21.95;7.13;;;8.70;100.00;;;;;;5000991;28;20794;-72
2023/03/24 02:58:42;;;;;;;15.13;7.32;;;8.70;100.00;;;;;;5017557;28;20049;-72
2023/03/24 03:01:29;;;;;;;18.75;7.10;;;8.80;100.00;;;;;;5015231;28;20054;-72
2023/03/24 03:04:03;;;;;;;19.58;7.80;;;8.80;100.00;;;;;;5005440;28;20054;-72
2023/03/24 03:06:35;;;;;;;24.10;8.10;;;8.80;100.00;;;;;;5019493;28;20045;-72
2023/03/24 03:09:08;;;;;;;22.60;7.95;;;8.80;100.00;;;;;;5022690;28;20072;-72
2023/03/24 03:11:38;;;;;;;22.10;7.47;;;8.80;100.00;;;;;;5020318;28;20056;-72
2023/03/24 03:14:10;;;;;;;17.77;7.82;;;8.80;100.00;;;;;;5017624;28;20057;-72
2023/03/24 03:16:47;;;;;;;17.58;7.72;;;8.80;100.00;;;;;;5003960;28;20053;-72
2023/03/24 03:19:21;;;;;;;21.98;8.48;;;8.70;100.00;;;;;;5026932;28;20045;-72
2023/03/24 03:21:49;;;;;;;19.20;8.88;;;8.80;100.00;;;;;;5020874;28;20041;-72
2023/03/24 03:24:28;;;;;;;18.58;7.75;;;8.70;100.00;;;;;;5021103;28;20107;-72
2023/03/24 03:27:08;;;;;;;20.08;8.93;;;8.70;100.00;;;;;;5018674;28;20049;-72
2023/03/24 03:29:43;;;;;;;26.95;11.65;;;8.70;100.00;;;;;;5005549;28;20055;-72
2023/03/24 03:32:23;;;;;;;19.13;9.20;;;8.70;100.00;;;;;;5021459;28;20045;-72
2023/03/24 03:35:14;;;;;;;20.52;8.90;;;8.70;100.00;;;;;;5022320;28;20084;-72
2023/03/24 03:38:18;;;;;;;23.30;9.10;;;8.70;100.00;;;;;;5005366;28;20403;-72
2023/03/24 03:40:51;;;;;;;24.55;9.25;;;8.70;100.00;;;;;;5018607;28;20049;-72
2023/03/24 03:43:18;;;;;;;18.38;8.90;;;8.70;100.00;;;;;;5002781;28;20045;-72
2023/03/24 03:45:45;;;;;;;21.35;9.73;;;8.70;100.00;;;;;;5004861;28;20042;-73
2023/03/24 03:48:12;;;;;;;21.48;8.38;;;8.80;100.00;;;;;;5019741;28;20065;-72
2023/03/24 03:50:39;;;;;;;22.63;9.27;;;8.80;100.00;;;;;;5021387;28;20131;-72
2023/03/24 03:53:07;;;;;;;21.92;9.00;;;8.70;100.00;;;;;;5018057;28;20478;-72
2023/03/24 03:55:34;;;;;;;18.33;8.70;;;8.80;100.00;;;;;;5015288;28;20049;-72
2023/03/24 03:58:03;;;;;;;20.60;8.85;;;8.80;100.00;;;;;;5018293;28;20053;-73
2023/03/24 04:00:30;;;;;;;23.02;8.95;;;8.80;100.00;;;;;;5019407;28;20046;-72
2023/03/24 04:03:13;;;;;;;32.03;9.70;;;8.80;100.00;;;;;;5019720;28;20045;-72
2023/03/24 04:05:49;;;;;;;20.33;9.55;;;8.70;100.00;;;;;;5016865;28;20065;-72
2023/03/24 04:08:36;;;;;;;22.50;9.20;;;8.80;100.00;;;;;;5018508;28;20045;-72
2023/03/24 04:11:21;;;;;;;21.58;8.80;;;8.70;100.00;;;;;;5019963;28;20539;-72
2023/03/24 04:14:08;;;;;;;26.83;9.27;;;8.70;100.00;;;;;;5018137;28;20053;-72
2023/03/24 04:16:53;;;;;;;21.42;8.75;;;8.70;100.00;;;;;;5018384;28;20053;-72
2023/03/24 04:19:20;;;;;;;23.67;8.50;;;8.70;100.00;;;;;;5022471;28;20049;-72
2023/03/24 04:22:24;;;;;;;26.27;9.63;;;8.70;100.00;;;;;;5018348;28;20050;-72
2023/03/24 04:25:06;;;;;;;30.30;9.13;;;8.70;100.00;;;;;;5013019;28;20045;-72
2023/03/24 04:27:39;;;;;;;27.42;9.07;;;8.70;100.00;;;;;;5003033;28;20132;-72
2023/03/24 04:30:15;;;;;;;22.63;9.65;;;8.70;100.00;;;;;;5015943;28;20065;-72
2023/03/24 04:32:50;;;;;;;23.08;9.55;;;8.70;100.00;;;;;;5017549;28;20049;-72
2023/03/24 04:35:32;;;;;;;20.30;8.73;;;8.80;100.00;;;;;;5020189;28;20056;-72
2023/03/24 04:38:04;;;;;;;26.92;9.20;;;8.70;100.00;;;;;;5018647;28;20076;-72
2023/03/24 04:40:35;;;;;;;25.80;9.13;;;8.70;100.00;;;;;;5015243;28;20057;-72
2023/03/24 04:43:07;;;;;;;25.08;10.48;;;8.70;100.00;;;;;;5003736;28;22033;-72
2023/03/24 04:45:35;;;;;;;27.52;9.20;;;8.70;100.00;;;;;;5028150;28;20347;-72
2023/03/24 04:48:05;;;;;;;28.75;10.27;;;8.70;100.00;;;;;;5025632;28;20052;-73
2023/03/24 04:50:38;;;;;;;26.48;10.07;;;8.70;100.00;;;;;;5008398;28;20045;-72
2023/03/24 04:53:07;;;;;;;21.63;10.45;;;8.80;100.00;;;;;;5023012;28;20057;-72
2023/03/24 04:55:49;;;;;;;25.20;12.13;;;8.80;100.00;;;;;;5008098;28;20374;-72
2023/03/24 04:58:17;;;;;;;26.23;10.52;;;8.80;100.00;;;;;;5020637;28;20053;-72
2023/03/24 05:00:45;;;;;;;25.77;10.40;;;8.80;100.00;;;;;;5004498;28;20750;-72
2023/03/24 05:03:15;;;;;;;25.92;10.43;;;8.80;100.00;;;;;;5020895;28;20129;-72
2023/03/24 05:05:48;;;;;;;27.65;10.80;;;8.80;100.00;;;;;;5007822;28;20062;-71
2023/03/24 05:08:19;;;;;;;28.45;11.02;;;8.80;100.00;;;;;;5022946;28;20060;-72
2023/03/24 05:10:46;;;;;;;26.63;9.85;;;8.80;100.00;;;;;;5004315;28;20111;-72
2023/03/24 05:13:13;;;;;;;25.55;10.88;;;8.90;100.00;;;;;;5029117;28;20473;-71
2023/03/24 05:15:40;;;;;;;26.77;10.73;;;8.90;100.00;;;;;;5028364;28;20517;-72
2023/03/24 05:18:08;;;;;;;28.05;10.52;;;8.90;100.00;;;;;;5023032;28;20057;-72
2023/03/24 05:20:35;;;;;;;26.17;9.80;;;9.00;100.00;;;;;;5023246;28;20123;-71
2023/03/24 05:23:02;;;;;;;27.40;10.88;;;9.00;100.00;;;;;;5007803;28;20045;-71
2023/03/24 05:25:29;;;;;;;19.13;10.05;;;9.00;100.00;;;;;;5009807;28;20051;-72
2023/03/24 05:27:56;;;;;;;27.25;10.10;;;9.00;100.00;;;;;;5007235;28;20061;-71
2023/03/24 05:30:23;;;;;;;23.65;10.68;;;9.00;100.00;;;;;;5023052;28;20168;-71
2023/03/24 05:32:50;;;;;;;34.47;11.27;;;9.10;100.00;;;;;;5020038;28;20057;-72
2023/03/24 05:35:16;;;;;;;25.92;9.88;;;9.10;100.00;;;;;;5002371;28;20348;-72
2023/03/24 05:37:43;;;;;;;21.35;9.93;;;9.10;100.00;;;;;;5004659;28;20053;-72
2023/03/24 05:40:11;;;;;;;22.38;10.25;;;9.10;100.00;;;;;;5022495;28;20054;-72
2023/03/24 05:42:37;;;;;;;25.15;10.23;;;9.20;100.00;;;;;;5023866;28;20041;-72
2023/03/24 05:45:05;;;;;;;21.42;10.05;;;9.20;100.00;;;;;;5025479;28;20143;-72
2023/03/24 05:47:32;;;;;;;22.52;10.57;;;9.20;100.00;;;;;;5023380;28;20121;-72
2023/03/24 05:49:59;;;;;;;24.75;10.80;;;9.20;100.00;;;;;;5002827;28;20049;-72
2023/03/24 05:52:26;;;;;;;26.48;11.18;;;9.30;100.00;;;;;;5004450;28;20740;-72
2023/03/24 05:54:54;;;;;;;26.70;9.73;;;9.30;100.00;;;;;;5022953;28;20084;-72
2023/03/24 05:57:21;;;;;;;26.73;10.85;;;9.30;100.00;;;;;;5023457;28;20064;-72
2023/03/24 05:59:48;;;;;;;22.92;10.30;;;9.30;100.00;;;;;;5003240;28;20085;-73
2023/03/24 06:02:15;;;;;;;27.75;10.15;;;9.40;100.00;;;;;;5020960;28;20049;-72
2023/03/24 06:04:45;;;;;;;26.55;10.43;;;9.40;100.00;;;;;;5006901;28;20061;-75
2023/03/24 06:07:12;;;;;;;21.77;9.88;;;9.40;100.00;;;;;;5022224;28;20148;-71
2023/03/24 06:09:41;;;;;;;22.10;10.07;;;9.40;100.00;;;;;;5019705;28;20051;-73
2023/03/24 06:12:09;;;;;;;23.98;10.75;;;9.40;100.00;;;;;;5021977;28;20215;-73
2023/03/24 06:14:37;;;;;;;25.58;10.20;;;9.40;100.00;;;;;;5023549;28;20087;-73
2023/03/24 06:17:06;;;;;;;19.13;9.35;;;9.50;100.00;;;;;;5019589;28;20709;-73
2023/03/24 06:19:33;;;;;;;26.80;9.82;;;9.50;100.00;;;;;;5006668;28;20045;-73
2023/03/24 06:22:01;;;;;;;19.63;9.70;;;9.60;100.00;;;;;;5018316;28;20053;-73
2023/03/24 06:24:29;;;;;;;28.63;10.18;;;9.60;100.00;;;;;;5023102;28;20128;-75
2023/03/24 06:27:01;;;;;;;27.33;10.07;;;9.60;100.00;;;;;;5024608;28;20782;-72
2023/03/24 06:29:30;;;;;;;21.17;9.90;;;9.60;100.00;;;;;;5024122;28;20054;-72
2023/03/24 06:31:57;;;;;;;19.45;9.73;;;9.70;100.00;;;;;;5025321;28;20056;-72
2023/03/24 06:34:24;;;;;;;20.10;10.82;;;9.70;100.00;;;;;;5008425;28;20832;-72
2023/03/24 06:36:51;;;;;;;23.33;10.32;;;9.70;100.00;;;;;;5023055;28;20417;-73
2023/03/24 06:39:18;;;;;;;22.48;10.30;;;9.80;100.00;;;;;;5019855;28;20053;-73
2023/03/24 06:41:45;;;;;;;20.50;9.65;;;9.80;100.00;;;;;;5006082;28;20576;-73
2023/03/24 06:44:12;;;;;;;21.60;9.75;;;9.90;100.00;;;;;;5018089;28;20048;-73
2023/03/24 06:46:39;;;;;;;23.70;9.77;;;9.90;100.00;;;;;;5002953;28;20041;-73
2023/03/24 06:49:06;;;;;;;21.63;8.52;;;10.00;100.00;;;;;;5019937;28;20049;-73
2023/03/24 06:51:33;;;;;;;23.30;9.43;;;10.00;100.00;;;;;;5019837;28;20401;-73
2023/03/24 06:54:00;;;;;;;17.80;9.52;;;10.00;100.00;;;;;;5003273;28;20053;-73
2023/03/24 06:56:27;;;;;;;19.90;9.20;;;10.10;100.00;;;;;;5021076;28;20169;-72
2023/03/24 06:58:55;;;;;;;18.25;9.65;;;10.10;100.00;;;;;;5023615;28;20063;-73
2023/03/24 07:01:23;;;;;;;22.20;8.68;;;10.10;100.00;;;;;;5019355;28;20049;-73
2023/03/24 07:03:50;;;;;;;25.30;8.95;;;10.20;100.00;;;;;;5022065;28;20041;-73
2023/03/24 07:06:17;;;;;;;14.75;7.97;;;10.20;100.00;;;;;;5024168;28;20052;-73
2023/03/24 07:08:44;;;;;;;16.88;8.65;;;10.30;100.00;;;;;;5021574;28;20045;-73
2023/03/24 07:11:11;;;;;;;16.50;8.35;;;10.40;100.00;;;;;;5019849;28;20056;-73
2023/03/24 07:13:38;;;;;;;17.35;8.40;;;10.50;100.00;;;;;;5023911;28;20060;-73
2023/03/24 07:16:05;;;;;;;20.35;9.35;;;10.50;100.00;;;;;;5023770;28;20050;-73
2023/03/24 07:18:32;;;;;;;19.38;8.45;;;10.50;100.00;;;;;;5023176;28;20137;-72
2023/03/24 07:20:59;;;;;;;22.60;8.80;;;10.60;100.00;;;;;;5025125;28;20072;-72
2023/03/24 07:23:26;;;;;;;17.05;8.10;;;10.60;100.00;;;;;;5006866;28;20045;-73
2023/03/24 07:25:53;;;;;;;19.00;8.45;;;10.60;100.00;;;;;;5013107;28;20129;-73
2023/03/24 07:28:20;;;;;;;16.50;8.40;;;10.60;100.00;;;;;;5027277;28;20049;-73
2023/03/24 07:30:47;;;;;;;17.10;8.00;;;10.70;100.00;;;;;;5023991;28;20045;-72
2023/03/24 07:33:14;;;;;;;19.00;8.40;;;10.70;100.00;;;;;;5023214;28;20792;-71
2023/03/24 07:35:41;;;;;;;17.52;8.50;;;10.80;100.00;;;;;;5023287;28;20057;-72
2023/03/24 07:38:09;;;;;;;13.40;8.43;;;10.80;100.00;;;;;;5021000;28;20096;-72
2023/03/24 07:40:36;;;;;;;14.27;7.85;;;10.80;100.00;;;;;;5006137;28;20390;-72
2023/03/24 07:43:04;;;;;;;17.15;8.00;;;10.90;100.00;;;;;;5021697;28;20111;-72
2023/03/24 07:45:33;;;;;;;14.65;7.90;;;10.90;100.00;;;;;;5021681;28;20049;-72
2023/03/24 07:48:03;;;;;;;15.88;8.52;;;10.90;100.00;;;;;;5020122;28;20060;-72
2023/03/24 07:50:30;;;;;;;13.50;8.60;;;10.90;100.00;;;;;;5019635;28;20095;-72
2023/03/24 07:52:57;;;;;;;15.45;8.40;;;11.00;100.00;;;;;;5019868;28;20103;-72
2023/03/24 07:55:26;;;;;;;16.45;8.80;;;11.00;100.00;;;;;;5025178;28;20850;-73
2023/03/24 07:57:53;;;;;;;13.43;8.15;;;11.00;100.00;;;;;;5025055;28;20156;-73
2023/03/24 08:00:20;;;;;;;14.73;7.88;;;11.00;100.00;;;;;;5023399;28;20502;-73
2023/03/24 08:02:50;;;;;;;14.90;8.52;;;11.00;100.00;;;;;;5023350;28;20041;-73
2023/03/24 08:05:22;;;;;;;21.38;8.43;;;11.00;100.00;;;;;;5029867;28;20044;-73
2023/03/24 08:07:54;;;;;;;20.98;9.07;;;11.10;100.00;;;;;;5002752;28;20490;-73
2023/03/24 08:10:29;;;;;;;15.85;8.20;;;11.10;100.00;;;;;;5020941;28;20123;-74
2023/03/24 08:12:57;;;;;;;16.00;8.10;;;11.20;100.00;;;;;;5018443;28;20104;-74
2023/03/24 08:15:25;;;;;;;19.25;9.40;;;11.20;100.00;;;;;;5018527;28;20054;-73
2023/03/24 08:17:55;;;;;;;16.98;8.93;;;11.20;100.00;;;;;;4999091;28;20056;-74
2023/03/24 08:20:23;;;;;;;16.52;8.32;;;11.20;100.00;;;;;;5020902;28;20053;-71
2023/03/24 08:22:53;;;;;;;14.70;8.85;;;11.20;100.00;;;;;;5022065;28;20072;-71
2023/03/24 08:25:22;;;;;;;14.07;8.05;;;11.20;100.00;;;;;;5020723;28;20276;-72
2023/03/24 08:27:50;;;;;;;17.48;8.10;;;11.20;100.00;;;;;;5016287;28;20455;-72
2023/03/24 08:30:19;;;;;;;13.48;8.68;;;11.20;100.00;;;;;;5023968;28;20746;-72
2023/03/24 08:32:52;;;;;;;16.58;9.18;;;11.20;100.00;;;;;;4999984;28;20069;-72
2023/03/24 08:35:22;;;;;;;17.73;8.82;;;11.20;100.00;;;;;;5016430;28;20053;-73
2023/03/24 08:37:50;;;;;;;18.77;9.38;;;11.20;100.00;;;;;;5005854;28;20056;-73
2023/03/24 08:40:22;;;;;;;12.82;8.00;;;11.30;100.00;;;;;;5017750;28;20053;-73
2023/03/24 08:42:57;;;;;;;21.35;9.60;;;11.30;100.00;;;;;;5012201;28;20761;-73
2023/03/24 08:45:26;;;;;;;;;;;11.20;100.00;;;;;;5020234;28;20045;-73
2023/03/24 08:47:54;;;;;;;16.83;8.98;;;11.20;100.00;;;;;;5027256;28;20266;-73
2023/03/24 08:50:24;;;;;;;16.33;9.00;;;11.30;100.00;;;;;;5009929;28;20114;-73
2023/03/24 08:52:51;;;;;;;15.85;8.57;;;11.30;100.00;;;;;;5026034;28;20060;-73
2023/03/24 08:55:19;;;;;;;15.68;8.50;;;11.30;100.00;;;;;;5029476;28;20565;-73
2023/03/24 08:57:48;;;;;;;12.60;8.00;;;11.40;100.00;;;;;;5024045;28;20041;-73
2023/03/24 09:00:17;;;;;;;13.75;7.07;;;11.50;100.00;;;;;;5020767;28;20566;-74
2023/03/24 09:02:50;;;;;;;13.13;7.72;;;11.60;100.00;;;;;;5018502;28;20100;-72
2023/03/24 09:05:18;;;;;;;12.45;7.95;;;11.80;100.00;;;;;;5020560;28;20057;-72
2023/03/24 09:07:55;;;;;;;13.95;7.57;;;11.80;100.00;;;;;;5034105;28;20437;-72
2023/03/24 09:10:22;;;;;;;13.52;7.35;;;11.90;100.00;;;;;;5009277;28;21505;-75
2023/03/24 09:12:49;;;;;;;10.48;7.05;;;12.00;100.00;;;;;;5031827;28;20053;-73
2023/03/24 09:15:16;;;;;;;12.25;7.80;;;12.00;100.00;;;;;;5025533;28;20394;-74
2023/03/24 09:17:43;;;;;;;11.77;6.90;;;12.00;100.00;;;;;;5029582;28;20179;-72
2023/03/24 09:20:14;;;;;;;10.90;6.40;;;12.00;100.00;;;;;;5026717;28;20052;-74
2023/03/24 09:22:44;;;;;;;11.38;6.40;;;11.90;100.00;;;;;;5011051;28;20049;-73
2023/03/24 09:25:13;;;;;;;15.70;6.18;;;11.90;99.90;;;;;;5009892;28;20060;-73
2023/03/24 09:27:40;;;;;;;11.02;6.43;;;11.90;100.00;;;;;;5024482;28;20050;-73
2023/03/24 09:30:09;;;;;;;14.00;6.72;;;11.90;100.00;;;;;;5008872;28;20177;-73
2023/03/24 09:32:36;;;;;;;9.75;5.78;;;11.90;100.00;;;;;;5031623;28;20417;-73
2023/03/24 09:35:06;;;;;;;11.38;5.82;;;12.10;100.00;;;;;;5010579;28;20128;-73
2023/03/24 09:37:34;;;;;;;12.68;6.22;;;12.20;99.60;;;;;;5006680;28;20935;-73
2023/03/24 09:40:01;;;;;;;12.65;5.07;;;12.30;99.10;;;;;;5005255;28;20049;-72
2023/03/24 09:42:33;;;;;;;8.43;5.10;;;12.50;99.00;;;;;;5021712;28;20041;-72
2023/03/24 09:45:11;;;;;;;10.25;4.53;;;12.70;97.80;;;;;;5018058;28;20042;-72
2023/03/24 09:48:03;;;;;;;7.97;3.90;;;12.90;96.60;;;;;;5026617;28;20056;-72
2023/03/24 09:50:41;;;;;;;5.13;3.53;;;12.80;94.30;;;;;;5009869;28;20051;-72
2023/03/24 09:53:29;;;;;;;6.85;2.83;;;13.00;94.90;;;;;;5014251;28;20775;-72
2023/03/24 09:56:00;;;;;;;6.35;3.10;;;13.00;91.40;;;;;;5006772;28;20049;-72
2023/03/24 09:58:30;;;;;;;6.90;3.50;;;13.10;91.90;;;;;;5029603;28;20415;-72
2023/03/24 10:00:57;;;;;;;4.78;3.10;;;13.20;93.70;;;;;;5008145;28;20122;-72
2023/03/24 10:03:24;;;;;;;3.17;2.30;;;13.80;93.10;;;;;;5028597;28;20049;-72
2023/03/24 10:06:24;;;;;;;4.85;1.85;;;14.50;88.90;;;;;;5022539;28;20122;-72
2023/03/24 10:09:27;;;;;;;3.53;1.35;;;15.10;85.70;;;;;;5030334;28;20054;-72
2023/03/24 10:12:24;;;;;;;9.15;1.13;;;16.60;80.80;;;;;;5032224;28;20050;-72
2023/03/24 10:15:19;;;;;;;3.83;1.15;;;17.80;72.50;;;;;;5026777;28;20053;-71
2023/03/24 10:18:11;;;;;;;15.63;1.23;;;18.50;62.50;;;;;;5002581;28;20044;-72
2023/03/24 10:21:10;;;;;;;7.78;1.20;;;18.20;60.80;;;;;;5029247;28;20053;-72
2023/03/24 10:23:51;;;;;;;6.63;1.30;;;18.90;62.70;;;;;;5014170;28;20061;-71
2023/03/24 10:26:45;;;;;;;7.18;1.15;;;17.90;63.90;;;;;;5030212;28;20511;-72
2023/03/24 10:29:30;;;;;;;7.93;1.42;;;16.00;64.80;;;;;;5022486;28;20052;-72
2023/03/24 10:32:21;;;;;;;4.05;1.10;;;15.10;71.00;;;;;;5016517;28;20054;-72
2023/03/24 10:34:55;;;;;;;9.30;1.10;;;14.90;71.00;;;;;;5019926;28;20438;-72
2023/03/24 10:37:22;;;;;;;6.32;1.27;;;15.30;73.20;;;;;;5023675;28;20040;-72
2023/03/24 10:39:50;;;;;;;4.03;1.50;;;15.20;71.00;;;;;;5011948;28;20045;-72
2023/03/24 10:42:24;;;;;;;3.25;1.27;;;14.70;73.90;;;;;;5021562;28;20084;-72
2023/03/24 10:44:51;;;;;;;5.07;1.50;;;14.40;75.30;;;;;;5025002;28;20426;-72
2023/03/24 10:47:25;;;;;;;6.15;1.38;;;14.00;74.10;;;;;;5001694;28;20049;-72
2023/03/24 10:49:59;;;;;;;6.90;1.58;;;13.70;76.60;;;;;;5030398;28;20049;-72
2023/03/24 10:52:45;;;;;;;17.73;1.70;;;13.60;74.90;;;;;;5022951;28;20089;-71
2023/03/24 10:55:22;;;;;;;5.65;1.20;;;13.80;76.00;;;;;;5028903;28;20045;-73
2023/03/24 10:57:54;;;;;;;8.50;1.95;;;14.90;74.50;;;;;;5009228;28;20049;-72
2023/03/24 11:00:33;;;;;;;3.30;1.20;;;15.00;72.90;;;;;;5029817;28;20815;-72
2023/03/24 11:03:02;;;;;;;7.75;1.48;;;15.60;75.00;;;;;;5023803;28;20045;-72
2023/03/24 11:05:33;;;;;;;10.48;2.03;;;15.60;70.40;;;;;;5024098;28;20476;-72
2023/03/24 11:08:16;;;;;;;5.28;1.77;;;15.30;73.60;;;;;;5025639;28;20049;-72
2023/03/24 11:10:43;;;;;;;8.35;1.75;;;16.80;71.60;;;;;;5022578;28;20061;-72
2023/03/24 11:13:19;;;;;;;5.30;1.80;;;18.40;65.10;;;;;;5026171;28;20059;-72
2023/03/24 11:16:03;;;;;;;10.55;2.15;;;18.90;61.80;;;;;;5029685;28;20064;-72
2023/03/24 11:18:31;;;;;;;4.95;1.73;;;20.10;58.60;;;;;;5032009;28;20065;-72
2023/03/24 11:21:03;;;;;;;6.78;1.30;;;20.40;60.70;;;;;;5035338;28;20063;-72
2023/03/24 11:23:44;;;;;;;5.50;1.40;;;19.40;57.50;;;;;;5031556;28;20051;-72
2023/03/24 11:26:15;;;;;;;4.82;1.38;;;17.80;58.70;;;;;;5010905;28;20764;-72
2023/03/24 11:29:08;;;;;;;10.27;1.63;;;17.30;62.00;;;;;;5023999;28;20112;-72
2023/03/24 11:31:38;;;;;;;9.43;1.63;;;17.40;67.30;;;;;;5022493;28;20130;-72
2023/03/24 11:34:12;;;;;;;5.72;1.40;;;19.50;63.70;;;;;;5021744;28;20087;-72
2023/03/24 11:36:41;;;;;;;3.85;1.50;;;20.70;56.50;;;;;;5026110;28;20053;-72
2023/03/24 11:39:25;;;;;;;8.52;1.80;;;19.30;61.90;;;;;;5015475;28;20055;-72
2023/03/24 11:42:00;;;;;;;4.88;1.35;;;20.20;55.50;;;;;;5039303;28;20352;-73
2023/03/24 11:44:48;;;;;;;8.35;2.00;;;18.70;54.20;;;;;;5009587;28;20045;-73
2023/03/24 11:47:26;;;;;;;4.03;1.33;;;17.90;58.20;;;;;;4999175;28;20053;-73
2023/03/24 11:50:09;;;;;;;7.50;3.28;;;17.20;61.50;;;;;;5028722;28;20057;-72
2023/03/24 11:52:57;;;;;;;4.75;1.30;;;16.80;63.40;;;;;;5030848;28;20076;-73
2023/03/24 11:55:52;;;;;;;8.68;2.28;;;16.20;62.70;;;;;;5029912;28;20056;-73
2023/03/24 11:58:28;;;;;;;5.28;1.40;;;16.10;66.90;;;;;;5022509;28;20739;-72
2023/03/24 12:01:20;;;;;;;11.70;1.65;;;16.00;67.60;;;;;;5024283;28;20122;-72
2023/03/24 12:04:05;;;;;;;7.32;1.67;;;15.40;66.00;;;;;;5012590;28;20061;-73
2023/03/24 12:06:44;;;;;;;7.00;1.30;;;15.10;67.10;;;;;;5008630;28;20057;-72
2023/03/24 12:09:32;;;;;;;8.95;2.80;;;14.90;68.50;;;;;;5012347;28;20624;-72
2023/03/24 12:12:01;;;;;;;7.00;1.55;;;15.30;69.10;;;;;;5040839;28;20061;-72
2023/03/24 12:14:48;;;;;;;8.48;1.38;;;15.60;62.10;;;;;;5022732;28;20128;-72
2023/03/24 12:17:23;;;;;;;13.27;2.42;;;15.60;66.30;;;;;;5012047;28;20828;-72
2023/03/24 12:20:05;;;;;;;9.85;1.65;;;16.40;66.60;;;;;;5014361;28;20057;-73
2023/03/24 12:23:07;;;;;;;9.27;1.50;;;16.70;60.70;;;;;;5022187;28;20099;-73
2023/03/24 12:25:53;;;;;;;6.18;1.42;;;16.60;63.40;;;;;;5017241;28;20072;-73
2023/03/24 12:28:44;;;;;;;4.85;1.40;;;16.20;63.20;;;;;;5019728;28;20048;-72
2023/03/24 12:31:30;;;;;;;3.10;1.30;;;16.90;64.50;;;;;;5023335;28;20045;-73
2023/03/24 12:34:15;;;;;;;7.65;1.50;;;17.00;62.10;;;;;;5020981;28;20103;-73
2023/03/24 12:36:51;;;;;;;7.97;2.72;;;18.10;62.40;;;;;;5030597;28;20449;-73
2023/03/24 12:39:30;;;;;;;6.60;1.25;;;17.60;60.20;;;;;;5012073;28;20724;-73
2023/03/24 12:42:11;;;;;;;7.32;1.58;;;16.90;60.40;;;;;;5035305;28;20128;-73
2023/03/24 12:44:53;;;;;;;8.20;1.50;;;16.00;64.40;;;;;;5010531;28;20053;-73
2023/03/24 12:47:47;;;;;;;10.10;1.10;;;16.30;64.00;;;;;;5029439;28;20057;-73
2023/03/24 12:50:44;;;;;;;4.68;1.05;;;16.10;59.30;;;;;;5027131;28;20144;-72
2023/03/24 12:53:53;;;;;;;3.80;1.20;;;15.40;60.50;;;;;;5028227;28;20068;-73
2023/03/24 12:56:35;;;;;;;5.60;1.13;;;14.80;63.30;;;;;;5004229;28;20064;-71
2023/03/24 12:59:05;;;;;;;8.18;1.60;;;14.70;61.80;;;;;;5025909;28;20504;-72
2023/03/24 13:01:34;;;;;;;6.78;1.30;;;14.40;62.90;;;;;;5005924;28;20049;-72
2023/03/24 13:04:13;;;;;;;5.95;1.40;;;14.60;65.40;;;;;;5031275;28;20042;-71
2023/03/24 13:06:48;;;;;;;9.98;1.48;;;14.80;67.20;;;;;;5034909;28;20508;-72
2023/03/24 13:09:24;;;;;;;;;;;15.00;63.80;;;;;;5006702;28;20057;-72